This is the latest recevied weather packets stored in our database for station/object DM3FAM-13. If no packets are shown the sender has not sent any weather packets the latest 10 day(s).
| Time | Temp. | Humidity | Pressure | Rain* | Wind** | Luminosity | Snow |
|---|---|---|---|---|---|---|---|
| 1777630830 | 18.89° C | 36% | 1024.7 hPa | 0 mm | - | 687 W/m² | - |
| 1777630230 | 18.89° C | 35% | 1024.7 hPa | 0 mm | - | 682 W/m² | - |
| 1777629630 | 18.33° C | 35% | 1024.8 hPa | 0 mm | - | 674 W/m² | - |
| 1777629030 | 18.33° C | 36% | 1024.9 hPa | 0 mm | - | 663 W/m² | - |
| 1777628430 | 17.78° C | 35% | 1024.8 hPa | 0 mm | - | 650 W/m² | - |
| 1777627830 | 17.22° C | 35% | 1025 hPa | 0 mm | - | 636 W/m² | - |
| 1777627230 | 16.67° C | 35% | 1024.9 hPa | 0 mm | - | 558 W/m² | - |
| 1777626629 | 16.11° C | 36% | 1024.9 hPa | 0 mm | - | 40 W/m² | - |
| 1777626031 | 15.56° C | 36% | 1025 hPa | 0 mm | - | 39 W/m² | - |
| 1777625431 | 15.56° C | 36% | 1025 hPa | 0 mm | - | 38 W/m² | - |
| 1777624830 | 14.44° C | 37% | 1025 hPa | 0 mm | - | 37 W/m² | - |
| 1777624231 | 14.44° C | 36% | 1025 hPa | 0 mm | - | 36 W/m² | - |
| 1777623630 | 13.89° C | 37% | 1025 hPa | 0 mm | - | 35 W/m² | - |
| 1777623030 | 13.89° C | 37% | 1024.9 hPa | 0 mm | - | 35 W/m² | - |
| 1777622431 | 13.33° C | 38% | 1025 hPa | 0 mm | - | 34 W/m² | - |
| 1777621831 | 12.78° C | 38% | 1025 hPa | 0 mm | - | 33 W/m² | - |
| 1777621230 | 12.22° C | 40% | 1024.9 hPa | 0 mm | - | 33 W/m² | - |
| 1777620631 | 11.67° C | 43% | 1024.9 hPa | 0 mm | - | 32 W/m² | - |
| 1777620031 | 11.11° C | 41% | 1024.8 hPa | 0 mm | - | 31 W/m² | - |
| 1777619430 | 10.56° C | 44% | 1024.8 hPa | 0 mm | - | 30 W/m² | - |
| 1777618830 | 9.44° C | 48% | 1024.9 hPa | 0 mm | - | 29 W/m² | - |
| 1777618230 | 8.33° C | 58% | 1024.8 hPa | 0 mm | - | 29 W/m² | - |
| 1777617630 | 6.67° C | 67% | 1024.8 hPa | 0 mm | - | 28 W/m² | - |
| 1777617030 | 5.56° C | 70% | 1024.7 hPa | 0 mm | - | 27 W/m² | - |
| 1777616430 | 5° C | 69% | 1024.8 hPa | 0 mm | - | 26 W/m² | - |
* Rain latest hour (hover to see other rain measurements)
** Current wind speed in m/s (hover to see current wind gust speed)